createdAt,value
2019-04-27T00:02:13.339Z,7.70
2019-04-27T00:07:17.033Z,7.37
2019-04-27T00:12:16.506Z,7.90
2019-04-27T00:17:09.500Z,7.70
2019-04-27T00:22:05.860Z,7.63
2019-04-27T00:27:00.449Z,7.33
2019-04-27T00:31:55.778Z,8.47
2019-04-27T00:36:50.424Z,8.63
2019-04-27T00:41:45.368Z,9.63
2019-04-27T00:46:39.966Z,10.80
2019-04-27T00:51:34.541Z,10.03
2019-04-27T00:56:30.789Z,8.27
2019-04-27T01:01:33.318Z,8.87
2019-04-27T01:06:28.214Z,8.20
2019-04-27T01:11:24.861Z,9.53
2019-04-27T01:16:21.937Z,9.70
2019-04-27T01:21:15.536Z,12.67
2019-04-27T01:26:16.054Z,12.40
2019-04-27T01:31:12.345Z,9.53
2019-04-27T01:36:07.015Z,9.30
2019-04-27T01:41:01.582Z,10.10
2019-04-27T01:45:56.172Z,10.73
2019-04-27T01:50:50.760Z,10.10
2019-04-27T01:55:45.421Z,10.47
2019-04-27T02:00:53.801Z,10.90
2019-04-27T02:05:50.043Z,10.47
2019-04-27T02:10:44.919Z,10.73
2019-04-27T02:15:39.655Z,10.57
2019-04-27T02:20:34.222Z,9.90
2019-04-27T02:25:29.522Z,10.47
2019-04-27T02:30:41.115Z,9.87
2019-04-27T02:35:35.676Z,11.27
2019-04-27T02:40:53.083Z,10.77
2019-04-27T02:45:50.132Z,12.27
2019-04-27T02:50:45.612Z,12.57
2019-04-27T02:55:40.793Z,10.87
2019-04-27T03:00:35.454Z,10.73
2019-04-27T03:05:30.054Z,11.37
2019-04-27T03:10:26.268Z,10.57
2019-04-27T03:15:23.400Z,12.37
2019-04-27T03:20:21.795Z,11.93
2019-04-27T03:25:17.073Z,12.70
2019-04-27T03:30:14.990Z,12.03
2019-04-27T03:35:12.953Z,11.60
2019-04-27T03:40:10.323Z,10.97
2019-04-27T03:45:10.991Z,10.03
2019-04-27T03:50:10.332Z,9.90
2019-04-27T03:55:19.514Z,10.83
2019-04-27T04:00:19.972Z,9.03
2019-04-27T04:05:15.185Z,8.53
2019-04-27T04:10:10.720Z,8.83
2019-04-27T04:15:10.200Z,8.87
2019-04-27T04:20:10.167Z,12.13
2019-04-27T04:25:06.449Z,8.40
2019-04-27T04:30:01.074Z,8.87
2019-04-27T04:35:01.310Z,8.80
2019-04-27T04:39:56.389Z,9.53
2019-04-27T04:45:01.265Z,8.90
2019-04-27T04:50:08.543Z,9.33
2019-04-27T04:54:52.149Z,9.20
2019-04-27T04:59:46.717Z,8.07
2019-04-27T05:04:41.303Z,7.30
2019-04-27T05:09:35.879Z,7.10
2019-04-27T05:14:30.463Z,7.20
2019-04-27T05:19:25.609Z,6.33
2019-04-27T05:24:20.264Z,6.93
2019-04-27T05:29:14.840Z,7.00
2019-04-27T05:34:09.640Z,8.93
2019-04-27T05:39:06.704Z,6.33
2019-04-27T05:44:03.184Z,5.70
2019-04-27T05:49:01.649Z,6.57
2019-04-27T05:53:54.457Z,6.20
2019-04-27T05:58:51.083Z,5.40
2019-04-27T06:03:45.348Z,5.60
2019-04-27T06:08:39.929Z,5.10
2019-04-27T06:13:34.514Z,4.93
2019-04-27T06:18:29.539Z,5.93
2019-04-27T06:23:24.374Z,4.10
2019-04-27T06:28:19.104Z,3.53
2019-04-27T06:33:13.923Z,2.63
2019-04-27T06:38:10.173Z,4.60
2019-04-27T06:43:05.531Z,3.73
2019-04-27T06:48:00.108Z,1.50
2019-04-27T06:52:54.716Z,2.23
2019-04-27T06:57:49.294Z,2.33
2019-04-27T07:02:43.907Z,2.23
2019-04-27T07:07:39.535Z,1.60
2019-04-27T07:12:34.436Z,1.40
2019-04-27T07:17:29.246Z,1.93
2019-04-27T07:22:24.064Z,2.60
2019-04-27T07:27:19.168Z,2.33
2019-04-27T07:32:14.994Z,2.77
2019-04-27T07:37:11.135Z,2.13
2019-04-27T07:42:05.904Z,2.03
2019-04-27T07:47:16.838Z,1.77
2019-04-27T07:52:11.564Z,1.33
2019-04-27T07:57:06.168Z,1.90
2019-04-27T08:02:00.763Z,1.87
2019-04-27T08:06:55.368Z,2.80
2019-04-27T08:11:49.947Z,1.97
2019-04-27T08:16:44.565Z,2.03
2019-04-27T08:21:44.461Z,1.80
2019-04-27T08:26:37.137Z,1.70
2019-04-27T08:31:39.127Z,1.73
2019-04-27T08:36:33.732Z,1.30
2019-04-27T08:41:29.566Z,1.50
2019-04-27T08:46:24.499Z,0.90
2019-04-27T08:51:19.641Z,1.90
2019-04-27T08:56:14.355Z,1.50
2019-04-27T09:01:10.378Z,0.60
2019-04-27T09:06:06.850Z,0.73
2019-04-27T09:11:05.797Z,1.13
2019-04-27T09:16:11.134Z,1.60
2019-04-27T09:21:06.102Z,1.63
2019-04-27T09:26:00.715Z,0.90
2019-04-27T09:30:55.762Z,0.80
2019-04-27T09:35:50.363Z,0.87
2019-04-27T09:40:46.593Z,0.83
2019-04-27T09:45:42.023Z,0.47
2019-04-27T09:50:36.596Z,0.60
2019-04-27T09:55:31.223Z,0.43
2019-04-27T10:00:27.776Z,0.57
2019-04-27T10:05:22.773Z,0.33
2019-04-27T10:10:18.163Z,1.23
2019-04-27T10:15:14.084Z,1.03
2019-04-27T10:20:09.673Z,2.17
2019-04-27T10:25:08.715Z,1.17
2019-04-27T10:30:05.811Z,1.20
2019-04-27T10:35:00.506Z,1.93
2019-04-27T10:39:56.042Z,1.80
2019-04-27T10:44:50.860Z,1.77
2019-04-27T10:49:47.999Z,2.47
2019-04-27T10:54:41.837Z,3.00
2019-04-27T10:59:36.418Z,2.87
2019-04-27T11:04:46.223Z,2.03
2019-04-27T11:09:41.193Z,2.67
2019-04-27T11:14:35.794Z,1.23
2019-04-27T11:19:30.364Z,3.20
2019-04-27T11:24:24.955Z,3.13
2019-04-27T11:29:19.624Z,1.63
2019-04-27T11:34:14.297Z,1.40
2019-04-27T11:39:19.652Z,5.00
2019-04-27T11:44:12.855Z,2.20
2019-04-27T11:49:07.512Z,2.40
2019-04-27T11:54:02.111Z,1.53
2019-04-27T11:58:56.701Z,1.83
2019-04-27T12:03:51.317Z,1.70
2019-04-27T12:08:45.901Z,2.00
2019-04-27T12:13:40.497Z,3.73
2019-04-27T12:18:35.077Z,1.93
2019-04-27T12:23:35.547Z,1.80
2019-04-27T12:28:27.639Z,1.90
2019-04-27T12:33:22.252Z,1.77
2019-04-27T12:38:16.824Z,1.50
2019-04-27T12:43:11.441Z,2.07
2019-04-27T12:48:06.225Z,2.00
2019-04-27T12:53:02.464Z,2.37
2019-04-27T12:58:16.304Z,2.77
2019-04-27T13:03:11.217Z,2.83
2019-04-27T13:08:05.889Z,2.87
2019-04-27T13:13:00.479Z,2.10
2019-04-27T13:17:55.578Z,1.07
2019-04-27T13:22:51.407Z,1.60
2019-04-27T13:27:47.809Z,2.10
2019-04-27T13:32:42.299Z,2.40
2019-04-27T13:37:44.258Z,1.90
2019-04-27T13:42:53.572Z,2.40
2019-04-27T13:47:47.132Z,3.10
2019-04-27T13:52:41.725Z,2.13
2019-04-27T13:57:49.442Z,1.97
2019-04-27T14:02:34.746Z,3.00
2019-04-27T14:07:29.051Z,1.43
2019-04-27T14:12:23.625Z,1.90
2019-04-27T14:17:19.298Z,2.83
2019-04-27T14:22:14.215Z,2.77
2019-04-27T14:27:10.151Z,1.87
2019-04-27T14:32:05.257Z,1.37
2019-04-27T14:36:59.859Z,3.23
2019-04-27T14:41:54.575Z,1.50
2019-04-27T14:46:49.206Z,3.13
2019-04-27T14:51:43.779Z,1.77
2019-04-27T14:56:38.796Z,4.43
2019-04-27T15:01:33.413Z,3.93
2019-04-27T15:06:28.097Z,3.83
2019-04-27T15:11:23.966Z,2.23
2019-04-27T15:16:18.779Z,1.97
2019-04-27T15:21:13.443Z,2.47
2019-04-27T15:26:08.122Z,1.50
2019-04-27T15:31:02.481Z,1.20
2019-04-27T15:36:09.815Z,1.90
2019-04-27T15:41:11.342Z,2.40
2019-04-27T15:46:05.989Z,2.50
2019-04-27T15:51:03.342Z,1.57
2019-04-27T15:56:00.553Z,0.80
2019-04-27T16:00:56.495Z,1.27
2019-04-27T16:05:49.733Z,2.33
2019-04-27T16:10:44.331Z,0.90
2019-04-27T16:15:38.934Z,0.30
2019-04-27T16:20:34.141Z,0.40
2019-04-27T16:25:31.545Z,1.53
2019-04-27T16:30:25.347Z,0.97
2019-04-27T16:35:23.057Z,2.30
2019-04-27T16:40:24.338Z,2.00
2019-04-27T16:45:14.540Z,1.20
2019-04-27T16:50:09.883Z,2.77
2019-04-27T16:55:05.418Z,1.60
2019-04-27T17:00:01.114Z,1.57
2019-04-27T17:04:56.218Z,0.90
2019-04-27T17:09:50.972Z,1.27
2019-04-27T17:14:50.291Z,1.70
2019-04-27T17:19:49.115Z,1.70
2019-04-27T17:24:46.852Z,1.30
2019-04-27T17:29:40.582Z,2.00
2019-04-27T17:34:35.267Z,2.90
2019-04-27T17:39:30.014Z,2.87
2019-04-27T17:44:24.717Z,2.30
2019-04-27T17:49:19.406Z,3.83
2019-04-27T17:54:14.130Z,2.00
2019-04-27T17:59:10.235Z,2.83
2019-04-27T18:04:08.403Z,4.37
2019-04-27T18:09:03.412Z,1.93
2019-04-27T18:14:00.277Z,2.70
2019-04-27T18:19:00.070Z,3.47
2019-04-27T18:23:58.622Z,0.63
2019-04-27T18:28:54.183Z,0.73
2019-04-27T18:33:48.964Z,1.93
2019-04-27T18:38:43.666Z,1.33
2019-04-27T18:43:39.593Z,0.73
2019-04-27T18:48:40.271Z,0.93
2019-04-27T18:53:36.114Z,0.87
2019-04-27T18:58:30.866Z,1.37
2019-04-27T19:03:25.682Z,0.80
2019-04-27T19:08:20.601Z,1.30
2019-04-27T19:13:15.508Z,0.70
2019-04-27T19:18:10.378Z,0.77
2019-04-27T19:23:05.542Z,1.47
2019-04-27T19:28:00.349Z,1.43
2019-04-27T19:32:55.289Z,1.43
2019-04-27T19:37:50.082Z,1.00
2019-04-27T19:42:44.818Z,1.83
2019-04-27T19:47:39.429Z,0.60
2019-04-27T19:52:34.075Z,1.30
2019-04-27T19:57:34.964Z,0.97
2019-04-27T20:02:26.112Z,1.63
2019-04-27T20:07:20.755Z,1.67
2019-04-27T20:12:15.476Z,2.90
2019-04-27T20:17:10.113Z,3.87
2019-04-27T20:22:04.825Z,2.87
2019-04-27T20:27:00.614Z,2.63
2019-04-27T20:31:56.227Z,2.80
2019-04-27T20:36:52.747Z,3.03
2019-04-27T20:41:47.396Z,3.83
2019-04-27T20:46:42.057Z,2.70
2019-04-27T20:51:52.455Z,4.43
2019-04-27T20:56:46.378Z,4.27
2019-04-27T21:01:40.969Z,3.10
2019-04-27T21:06:37.275Z,4.57
2019-04-27T21:11:33.512Z,3.27
2019-04-27T21:16:28.090Z,3.73
2019-04-27T21:21:22.684Z,4.83
2019-04-27T21:26:17.281Z,3.53
2019-04-27T21:31:12.783Z,2.43
2019-04-27T21:36:07.733Z,4.87
2019-04-27T21:41:02.339Z,1.97
2019-04-27T21:45:56.932Z,2.60
2019-04-27T21:50:51.809Z,4.83
2019-04-27T21:55:48.234Z,4.50
2019-04-27T22:00:43.009Z,4.93
2019-04-27T22:05:38.094Z,3.90
2019-04-27T22:10:32.695Z,4.13
2019-04-27T22:15:27.348Z,4.53
2019-04-27T22:20:21.959Z,4.77
2019-04-27T22:25:16.534Z,6.37
2019-04-27T22:30:11.353Z,3.30
2019-04-27T22:35:07.469Z,6.83
2019-04-27T22:40:21.421Z,5.37
2019-04-27T22:45:17.818Z,5.57
2019-04-27T22:50:12.546Z,3.80
2019-04-27T22:55:08.408Z,7.77
2019-04-27T23:00:15.086Z,9.00
2019-04-27T23:05:10.858Z,1.83
2019-04-27T23:10:08.144Z,3.43
2019-04-27T23:15:02.946Z,5.53
2019-04-27T23:19:57.535Z,5.07
2019-04-27T23:24:52.139Z,2.63
2019-04-27T23:29:46.799Z,4.00
2019-04-27T23:34:41.612Z,3.37
2019-04-27T23:39:36.457Z,4.07
2019-04-27T23:44:31.040Z,3.70
2019-04-27T23:49:25.637Z,2.90
2019-04-27T23:54:20.226Z,4.20
2019-04-27T23:59:24.759Z,2.27
